sensor_id;sensor_type;location;lat;lon;timestamp;P1;durP1;ratioP1;P2;durP2;ratioP2
69573;SDS011;62840;52.366;5.980;2023-07-09T00:00:10;10.20;;;7.30;;
69573;SDS011;62840;52.366;5.980;2023-07-09T00:02:41;10.55;;;6.63;;
69573;SDS011;62840;52.366;5.980;2023-07-09T00:05:11;12.25;;;7.60;;
69573;SDS011;62840;52.366;5.980;2023-07-09T00:07:40;12.23;;;7.25;;
69573;SDS011;62840;52.366;5.980;2023-07-09T00:10:13;11.65;;;7.18;;
69573;SDS011;62840;52.366;5.980;2023-07-09T00:12:42;11.07;;;7.18;;
69573;SDS011;62840;52.366;5.980;2023-07-09T00:15:09;10.30;;;7.55;;
69573;SDS011;62840;52.366;5.980;2023-07-09T00:17:36;10.00;;;7.30;;
69573;SDS011;62840;52.366;5.980;2023-07-09T00:20:03;11.27;;;8.40;;
69573;SDS011;62840;52.366;5.980;2023-07-09T00:22:33;10.95;;;7.28;;
69573;SDS011;62840;52.366;5.980;2023-07-09T00:24:59;10.55;;;7.85;;
69573;SDS011;62840;52.366;5.980;2023-07-09T00:27:25;12.03;;;7.70;;
69573;SDS011;62840;52.366;5.980;2023-07-09T00:29:54;11.82;;;7.60;;
69573;SDS011;62840;52.366;5.980;2023-07-09T00:32:20;10.82;;;7.85;;
69573;SDS011;62840;52.366;5.980;2023-07-09T00:34:46;11.23;;;7.28;;
69573;SDS011;62840;52.366;5.980;2023-07-09T00:37:12;12.15;;;7.35;;
69573;SDS011;62840;52.366;5.980;2023-07-09T00:39:40;12.23;;;7.72;;
69573;SDS011;62840;52.366;5.980;2023-07-09T00:42:07;10.23;;;7.53;;
69573;SDS011;62840;52.366;5.980;2023-07-09T00:44:39;10.15;;;7.55;;
69573;SDS011;62840;52.366;5.980;2023-07-09T00:49:49;12.77;;;7.40;;
69573;SDS011;62840;52.366;5.980;2023-07-09T00:52:28;11.32;;;7.50;;
69573;SDS011;62840;52.366;5.980;2023-07-09T00:55:05;10.32;;;7.78;;
69573;SDS011;62840;52.366;5.980;2023-07-09T00:57:37;10.13;;;7.35;;
69573;SDS011;62840;52.366;5.980;2023-07-09T01:00:07;11.57;;;7.20;;
69573;SDS011;62840;52.366;5.980;2023-07-09T01:02:40;12.55;;;7.70;;
69573;SDS011;62840;52.366;5.980;2023-07-09T01:05:12;10.50;;;8.45;;
69573;SDS011;62840;52.366;5.980;2023-07-09T01:07:40;11.07;;;7.63;;
69573;SDS011;62840;52.366;5.980;2023-07-09T01:10:10;10.55;;;7.13;;
69573;SDS011;62840;52.366;5.980;2023-07-09T01:12:35;10.40;;;7.32;;
69573;SDS011;62840;52.366;5.980;2023-07-09T01:15:02;10.02;;;7.20;;
69573;SDS011;62840;52.366;5.980;2023-07-09T01:17:29;10.98;;;7.32;;
69573;SDS011;62840;52.366;5.980;2023-07-09T01:19:55;9.97;;;7.00;;
69573;SDS011;62840;52.366;5.980;2023-07-09T01:22:24;11.63;;;7.47;;
69573;SDS011;62840;52.366;5.980;2023-07-09T01:24:53;11.20;;;7.00;;
69573;SDS011;62840;52.366;5.980;2023-07-09T01:27:23;9.77;;;7.03;;
69573;SDS011;62840;52.366;5.980;2023-07-09T01:29:53;11.50;;;7.63;;
69573;SDS011;62840;52.366;5.980;2023-07-09T01:32:20;11.95;;;7.10;;
69573;SDS011;62840;52.366;5.980;2023-07-09T01:34:47;11.13;;;7.60;;
69573;SDS011;62840;52.366;5.980;2023-07-09T01:37:15;11.77;;;7.57;;
69573;SDS011;62840;52.366;5.980;2023-07-09T01:39:47;9.70;;;7.25;;
69573;SDS011;62840;52.366;5.980;2023-07-09T01:42:13;10.67;;;7.30;;
69573;SDS011;62840;52.366;5.980;2023-07-09T01:44:39;10.25;;;7.20;;
69573;SDS011;62840;52.366;5.980;2023-07-09T01:47:05;12.73;;;7.37;;
69573;SDS011;62840;52.366;5.980;2023-07-09T01:49:31;11.55;;;7.80;;
69573;SDS011;62840;52.366;5.980;2023-07-09T01:51:58;11.45;;;7.43;;
69573;SDS011;62840;52.366;5.980;2023-07-09T01:54:25;10.88;;;8.00;;
69573;SDS011;62840;52.366;5.980;2023-07-09T01:56:53;10.40;;;7.57;;
69573;SDS011;62840;52.366;5.980;2023-07-09T01:59:19;11.18;;;7.47;;
69573;SDS011;62840;52.366;5.980;2023-07-09T02:01:44;12.15;;;8.02;;
69573;SDS011;62840;52.366;5.980;2023-07-09T02:04:10;10.70;;;8.10;;
69573;SDS011;62840;52.366;5.980;2023-07-09T02:06:36;10.70;;;7.80;;
69573;SDS011;62840;52.366;5.980;2023-07-09T02:09:02;10.90;;;7.27;;
69573;SDS011;62840;52.366;5.980;2023-07-09T02:11:27;11.15;;;7.80;;
69573;SDS011;62840;52.366;5.980;2023-07-09T02:13:56;10.53;;;7.60;;
69573;SDS011;62840;52.366;5.980;2023-07-09T02:16:21;10.23;;;7.85;;
69573;SDS011;62840;52.366;5.980;2023-07-09T02:18:47;10.73;;;7.70;;
69573;SDS011;62840;52.366;5.980;2023-07-09T02:21:13;10.73;;;7.50;;
69573;SDS011;62840;52.366;5.980;2023-07-09T02:23:39;10.52;;;7.90;;
69573;SDS011;62840;52.366;5.980;2023-07-09T02:26:04;9.83;;;7.40;;
69573;SDS011;62840;52.366;5.980;2023-07-09T02:28:30;11.55;;;7.40;;
69573;SDS011;62840;52.366;5.980;2023-07-09T02:30:58;11.90;;;8.30;;
69573;SDS011;62840;52.366;5.980;2023-07-09T02:33:24;11.55;;;7.82;;
69573;SDS011;62840;52.366;5.980;2023-07-09T02:35:50;11.20;;;7.77;;
69573;SDS011;62840;52.366;5.980;2023-07-09T02:38:15;11.50;;;7.60;;
69573;SDS011;62840;52.366;5.980;2023-07-09T02:40:41;11.50;;;7.93;;
69573;SDS011;62840;52.366;5.980;2023-07-09T02:43:07;13.10;;;7.63;;
69573;SDS011;62840;52.366;5.980;2023-07-09T02:45:33;10.07;;;7.07;;
69573;SDS011;62840;52.366;5.980;2023-07-09T02:48:01;10.55;;;7.43;;
69573;SDS011;62840;52.366;5.980;2023-07-09T02:50:27;11.13;;;7.72;;
69573;SDS011;62840;52.366;5.980;2023-07-09T02:52:52;10.80;;;7.90;;
69573;SDS011;62840;52.366;5.980;2023-07-09T02:55:18;11.15;;;8.05;;
69573;SDS011;62840;52.366;5.980;2023-07-09T02:57:44;12.60;;;8.50;;
69573;SDS011;62840;52.366;5.980;2023-07-09T03:00:10;12.13;;;8.18;;
69573;SDS011;62840;52.366;5.980;2023-07-09T03:02:37;10.93;;;8.07;;
69573;SDS011;62840;52.366;5.980;2023-07-09T03:05:06;11.37;;;7.77;;
69573;SDS011;62840;52.366;5.980;2023-07-09T03:07:33;11.50;;;7.90;;
69573;SDS011;62840;52.366;5.980;2023-07-09T03:09:58;10.13;;;7.93;;
69573;SDS011;62840;52.366;5.980;2023-07-09T03:12:24;11.18;;;7.75;;
69573;SDS011;62840;52.366;5.980;2023-07-09T03:14:50;10.40;;;7.57;;
69573;SDS011;62840;52.366;5.980;2023-07-09T03:17:16;10.75;;;7.40;;
69573;SDS011;62840;52.366;5.980;2023-07-09T03:19:41;12.25;;;8.02;;
69573;SDS011;62840;52.366;5.980;2023-07-09T03:22:10;11.73;;;8.53;;
69573;SDS011;62840;52.366;5.980;2023-07-09T03:24:36;10.48;;;7.60;;
69573;SDS011;62840;52.366;5.980;2023-07-09T03:27:01;13.35;;;9.27;;
69573;SDS011;62840;52.366;5.980;2023-07-09T03:29:28;11.47;;;8.10;;
69573;SDS011;62840;52.366;5.980;2023-07-09T03:31:54;12.73;;;8.65;;
69573;SDS011;62840;52.366;5.980;2023-07-09T03:34:19;11.57;;;7.60;;
69573;SDS011;62840;52.366;5.980;2023-07-09T03:36:45;11.27;;;7.70;;
69573;SDS011;62840;52.366;5.980;2023-07-09T03:39:13;10.40;;;7.97;;
69573;SDS011;62840;52.366;5.980;2023-07-09T03:41:39;12.50;;;7.93;;
69573;SDS011;62840;52.366;5.980;2023-07-09T03:44:05;12.10;;;8.23;;
69573;SDS011;62840;52.366;5.980;2023-07-09T03:46:30;11.37;;;8.27;;
69573;SDS011;62840;52.366;5.980;2023-07-09T03:48:57;13.70;;;8.38;;
69573;SDS011;62840;52.366;5.980;2023-07-09T03:51:24;10.57;;;7.65;;
69573;SDS011;62840;52.366;5.980;2023-07-09T03:53:49;12.23;;;8.40;;
69573;SDS011;62840;52.366;5.980;2023-07-09T03:56:18;12.70;;;8.07;;
69573;SDS011;62840;52.366;5.980;2023-07-09T03:58:43;11.33;;;8.53;;
69573;SDS011;62840;52.366;5.980;2023-07-09T04:01:09;12.15;;;8.45;;
69573;SDS011;62840;52.366;5.980;2023-07-09T04:03:35;10.53;;;7.63;;
69573;SDS011;62840;52.366;5.980;2023-07-09T04:06:00;12.15;;;8.13;;
69573;SDS011;62840;52.366;5.980;2023-07-09T04:08:26;12.47;;;8.03;;
69573;SDS011;62840;52.366;5.980;2023-07-09T04:10:52;11.02;;;7.93;;
69573;SDS011;62840;52.366;5.980;2023-07-09T04:13:22;11.30;;;7.95;;
69573;SDS011;62840;52.366;5.980;2023-07-09T04:15:48;12.70;;;8.15;;
69573;SDS011;62840;52.366;5.980;2023-07-09T04:18:13;11.45;;;8.35;;
69573;SDS011;62840;52.366;5.980;2023-07-09T04:20:39;11.87;;;8.00;;
69573;SDS011;62840;52.366;5.980;2023-07-09T04:23:05;9.85;;;7.38;;
69573;SDS011;62840;52.366;5.980;2023-07-09T04:25:33;11.15;;;7.72;;
69573;SDS011;62840;52.366;5.980;2023-07-09T04:27:58;12.17;;;7.60;;
69573;SDS011;62840;52.366;5.980;2023-07-09T04:30:27;10.48;;;8.25;;
69573;SDS011;62840;52.366;5.980;2023-07-09T04:32:52;11.18;;;8.10;;
69573;SDS011;62840;52.366;5.980;2023-07-09T04:35:18;10.90;;;7.83;;
69573;SDS011;62840;52.366;5.980;2023-07-09T04:37:44;9.65;;;7.72;;
69573;SDS011;62840;52.366;5.980;2023-07-09T04:40:11;9.97;;;7.30;;
69573;SDS011;62840;52.366;5.980;2023-07-09T04:42:37;10.95;;;8.13;;
69573;SDS011;62840;52.366;5.980;2023-07-09T04:45:05;11.00;;;7.53;;
69573;SDS011;62840;52.366;5.980;2023-07-09T04:47:36;9.63;;;7.55;;
69573;SDS011;62840;52.366;5.980;2023-07-09T04:50:03;10.68;;;7.88;;
69573;SDS011;62840;52.366;5.980;2023-07-09T04:52:30;10.63;;;7.78;;
69573;SDS011;62840;52.366;5.980;2023-07-09T04:54:56;10.88;;;7.50;;
69573;SDS011;62840;52.366;5.980;2023-07-09T04:57:23;10.63;;;7.80;;
69573;SDS011;62840;52.366;5.980;2023-07-09T04:59:50;9.55;;;7.22;;
69573;SDS011;62840;52.366;5.980;2023-07-09T05:02:16;10.82;;;8.00;;
69573;SDS011;62840;52.366;5.980;2023-07-09T05:04:44;11.60;;;8.43;;
69573;SDS011;62840;52.366;5.980;2023-07-09T05:07:10;11.80;;;7.88;;
69573;SDS011;62840;52.366;5.980;2023-07-09T05:09:35;9.88;;;7.88;;
69573;SDS011;62840;52.366;5.980;2023-07-09T05:12:01;12.02;;;7.75;;
69573;SDS011;62840;52.366;5.980;2023-07-09T05:14:28;10.15;;;7.60;;
69573;SDS011;62840;52.366;5.980;2023-07-09T05:16:53;11.10;;;8.18;;
69573;SDS011;62840;52.366;5.980;2023-07-09T05:19:19;11.30;;;7.97;;
69573;SDS011;62840;52.366;5.980;2023-07-09T05:21:47;11.02;;;7.82;;
69573;SDS011;62840;52.366;5.980;2023-07-09T05:24:13;11.18;;;7.68;;
69573;SDS011;62840;52.366;5.980;2023-07-09T05:26:39;11.20;;;8.07;;
69573;SDS011;62840;52.366;5.980;2023-07-09T05:29:05;11.25;;;7.70;;
69573;SDS011;62840;52.366;5.980;2023-07-09T05:31:31;10.77;;;7.68;;
69573;SDS011;62840;52.366;5.980;2023-07-09T05:33:58;12.40;;;8.43;;
69573;SDS011;62840;52.366;5.980;2023-07-09T05:36:25;10.82;;;7.53;;
69573;SDS011;62840;52.366;5.980;2023-07-09T05:38:55;9.90;;;7.25;;
69573;SDS011;62840;52.366;5.980;2023-07-09T05:41:21;10.48;;;7.93;;
69573;SDS011;62840;52.366;5.980;2023-07-09T05:43:49;12.07;;;7.95;;
69573;SDS011;62840;52.366;5.980;2023-07-09T05:46:16;10.40;;;7.37;;
69573;SDS011;62840;52.366;5.980;2023-07-09T05:48:41;11.05;;;7.90;;
69573;SDS011;62840;52.366;5.980;2023-07-09T05:51:07;10.57;;;7.80;;
69573;SDS011;62840;52.366;5.980;2023-07-09T05:53:33;10.93;;;8.15;;
69573;SDS011;62840;52.366;5.980;2023-07-09T05:56:01;11.95;;;8.68;;
69573;SDS011;62840;52.366;5.980;2023-07-09T05:58:27;13.02;;;8.60;;
69573;SDS011;62840;52.366;5.980;2023-07-09T06:00:53;11.25;;;7.97;;
69573;SDS011;62840;52.366;5.980;2023-07-09T06:03:20;10.55;;;8.10;;
69573;SDS011;62840;52.366;5.980;2023-07-09T06:05:48;12.63;;;9.23;;
69573;SDS011;62840;52.366;5.980;2023-07-09T06:08:14;13.70;;;9.50;;
69573;SDS011;62840;52.366;5.980;2023-07-09T06:10:40;11.95;;;9.10;;
69573;SDS011;62840;52.366;5.980;2023-07-09T06:13:18;13.25;;;9.00;;
69573;SDS011;62840;52.366;5.980;2023-07-09T06:15:44;11.88;;;8.38;;
69573;SDS011;62840;52.366;5.980;2023-07-09T06:18:10;11.60;;;8.70;;
69573;SDS011;62840;52.366;5.980;2023-07-09T06:20:36;11.40;;;8.63;;
69573;SDS011;62840;52.366;5.980;2023-07-09T06:23:03;12.60;;;9.05;;
69573;SDS011;62840;52.366;5.980;2023-07-09T06:25:29;15.20;;;10.10;;
69573;SDS011;62840;52.366;5.980;2023-07-09T06:27:56;13.40;;;10.05;;
69573;SDS011;62840;52.366;5.980;2023-07-09T06:30:25;15.77;;;9.80;;
69573;SDS011;62840;52.366;5.980;2023-07-09T06:32:51;15.98;;;11.07;;
69573;SDS011;62840;52.366;5.980;2023-07-09T06:35:16;16.75;;;11.55;;
69573;SDS011;62840;52.366;5.980;2023-07-09T06:37:42;13.87;;;10.43;;
69573;SDS011;62840;52.366;5.980;2023-07-09T06:40:08;17.25;;;11.32;;
69573;SDS011;62840;52.366;5.980;2023-07-09T06:42:35;17.75;;;11.20;;
69573;SDS011;62840;52.366;5.980;2023-07-09T06:45:01;14.70;;;10.57;;
69573;SDS011;62840;52.366;5.980;2023-07-09T06:47:30;14.75;;;10.85;;
69573;SDS011;62840;52.366;5.980;2023-07-09T06:49:55;14.57;;;10.27;;
69573;SDS011;62840;52.366;5.980;2023-07-09T06:52:21;14.85;;;10.57;;
69573;SDS011;62840;52.366;5.980;2023-07-09T06:54:47;15.17;;;10.63;;
69573;SDS011;62840;52.366;5.980;2023-07-09T06:57:13;14.23;;;10.98;;
69573;SDS011;62840;52.366;5.980;2023-07-09T06:59:38;15.33;;;10.80;;
69573;SDS011;62840;52.366;5.980;2023-07-09T07:02:04;15.20;;;10.52;;
69573;SDS011;62840;52.366;5.980;2023-07-09T07:04:33;14.07;;;10.82;;
69573;SDS011;62840;52.366;5.980;2023-07-09T07:06:59;15.25;;;10.15;;
69573;SDS011;62840;52.366;5.980;2023-07-09T07:09:25;15.15;;;11.23;;
69573;SDS011;62840;52.366;5.980;2023-07-09T07:11:50;15.65;;;10.43;;
69573;SDS011;62840;52.366;5.980;2023-07-09T07:14:16;15.90;;;10.10;;
69573;SDS011;62840;52.366;5.980;2023-07-09T07:16:42;15.00;;;9.85;;
69573;SDS011;62840;52.366;5.980;2023-07-09T07:19:08;14.85;;;10.18;;
69573;SDS011;62840;52.366;5.980;2023-07-09T07:21:36;15.00;;;10.27;;
69573;SDS011;62840;52.366;5.980;2023-07-09T07:24:02;14.88;;;10.52;;
69573;SDS011;62840;52.366;5.980;2023-07-09T07:26:28;14.40;;;11.00;;
69573;SDS011;62840;52.366;5.980;2023-07-09T07:28:54;16.38;;;11.50;;
69573;SDS011;62840;52.366;5.980;2023-07-09T07:31:20;17.27;;;11.77;;
69573;SDS011;62840;52.366;5.980;2023-07-09T07:33:45;16.92;;;11.73;;
69573;SDS011;62840;52.366;5.980;2023-07-09T07:36:11;17.73;;;11.03;;
69573;SDS011;62840;52.366;5.980;2023-07-09T07:38:40;15.70;;;10.77;;
69573;SDS011;62840;52.366;5.980;2023-07-09T07:41:06;15.77;;;10.77;;
69573;SDS011;62840;52.366;5.980;2023-07-09T07:43:33;14.57;;;11.02;;
69573;SDS011;62840;52.366;5.980;2023-07-09T07:45:59;16.37;;;10.80;;
69573;SDS011;62840;52.366;5.980;2023-07-09T07:48:24;18.13;;;11.98;;
69573;SDS011;62840;52.366;5.980;2023-07-09T07:50:50;15.17;;;10.03;;
69573;SDS011;62840;52.366;5.980;2023-07-09T07:53:16;15.43;;;10.98;;
69573;SDS011;62840;52.366;5.980;2023-07-09T07:55:44;16.93;;;11.60;;
69573;SDS011;62840;52.366;5.980;2023-07-09T07:58:10;15.70;;;11.25;;
69573;SDS011;62840;52.366;5.980;2023-07-09T08:00:38;16.25;;;11.18;;
69573;SDS011;62840;52.366;5.980;2023-07-09T08:03:04;14.00;;;9.60;;
69573;SDS011;62840;52.366;5.980;2023-07-09T08:05:30;15.20;;;9.93;;
69573;SDS011;62840;52.366;5.980;2023-07-09T08:07:56;14.00;;;10.07;;
69573;SDS011;62840;52.366;5.980;2023-07-09T08:10:22;16.15;;;10.40;;
69573;SDS011;62840;52.366;5.980;2023-07-09T08:12:50;15.47;;;10.00;;
69573;SDS011;62840;52.366;5.980;2023-07-09T08:15:16;15.10;;;10.07;;
69573;SDS011;62840;52.366;5.980;2023-07-09T08:17:42;12.73;;;8.70;;
69573;SDS011;62840;52.366;5.980;2023-07-09T08:20:08;12.90;;;8.97;;
69573;SDS011;62840;52.366;5.980;2023-07-09T08:22:35;13.40;;;8.32;;
69573;SDS011;62840;52.366;5.980;2023-07-09T08:25:00;12.68;;;8.80;;
69573;SDS011;62840;52.366;5.980;2023-07-09T08:27:26;14.50;;;9.33;;
69573;SDS011;62840;52.366;5.980;2023-07-09T08:29:54;11.48;;;8.65;;
69573;SDS011;62840;52.366;5.980;2023-07-09T08:32:20;12.50;;;8.02;;
69573;SDS011;62840;52.366;5.980;2023-07-09T08:34:46;10.90;;;8.10;;
69573;SDS011;62840;52.366;5.980;2023-07-09T08:37:12;12.38;;;8.00;;
69573;SDS011;62840;52.366;5.980;2023-07-09T08:39:37;11.77;;;7.82;;
69573;SDS011;62840;52.366;5.980;2023-07-09T08:42:04;13.05;;;7.90;;
69573;SDS011;62840;52.366;5.980;2023-07-09T08:47:42;11.32;;;7.22;;
69573;SDS011;62840;52.366;5.980;2023-07-09T08:50:24;11.30;;;7.18;;
69573;SDS011;62840;52.366;5.980;2023-07-09T08:52:57;10.95;;;7.07;;
69573;SDS011;62840;52.366;5.980;2023-07-09T08:55:24;11.05;;;7.30;;
69573;SDS011;62840;52.366;5.980;2023-07-09T08:57:55;10.82;;;7.05;;
69573;SDS011;62840;52.366;5.980;2023-07-09T09:00:31;16.98;;;7.60;;
69573;SDS011;62840;52.366;5.980;2023-07-09T09:03:08;9.95;;;7.40;;
69573;SDS011;62840;52.366;5.980;2023-07-09T09:05:41;10.25;;;6.82;;
69573;SDS011;62840;52.366;5.980;2023-07-09T09:08:16;10.60;;;6.63;;
69573;SDS011;62840;52.366;5.980;2023-07-09T09:11:06;10.93;;;6.70;;
69573;SDS011;62840;52.366;5.980;2023-07-09T09:13:40;10.60;;;6.53;;
69573;SDS011;62840;52.366;5.980;2023-07-09T09:16:13;10.05;;;7.60;;
69573;SDS011;62840;52.366;5.980;2023-07-09T09:18:50;9.75;;;6.40;;
69573;SDS011;62840;52.366;5.980;2023-07-09T09:21:23;9.73;;;6.10;;
69573;SDS011;62840;52.366;5.980;2023-07-09T09:23:56;8.27;;;5.97;;
69573;SDS011;62840;52.366;5.980;2023-07-09T09:26:37;9.65;;;5.75;;
69573;SDS011;62840;52.366;5.980;2023-07-09T09:29:10;8.88;;;5.95;;
69573;SDS011;62840;52.366;5.980;2023-07-09T09:31:41;9.75;;;6.63;;
69573;SDS011;62840;52.366;5.980;2023-07-09T09:34:17;8.70;;;5.63;;
69573;SDS011;62840;52.366;5.980;2023-07-09T09:36:44;9.07;;;5.40;;
69573;SDS011;62840;52.366;5.980;2023-07-09T09:39:10;7.90;;;5.10;;
69573;SDS011;62840;52.366;5.980;2023-07-09T09:41:36;11.43;;;6.05;;
69573;SDS011;62840;52.366;5.980;2023-07-09T09:44:03;8.03;;;5.13;;
69573;SDS011;62840;52.366;5.980;2023-07-09T09:46:30;9.70;;;6.15;;
69573;SDS011;62840;52.366;5.980;2023-07-09T09:49:01;9.15;;;6.40;;
69573;SDS011;62840;52.366;5.980;2023-07-09T09:51:28;10.32;;;5.70;;
69573;SDS011;62840;52.366;5.980;2023-07-09T09:53:55;21.08;;;7.00;;
69573;SDS011;62840;52.366;5.980;2023-07-09T09:56:26;12.23;;;6.60;;
69573;SDS011;62840;52.366;5.980;2023-07-09T09:58:56;9.07;;;5.93;;
69573;SDS011;62840;52.366;5.980;2023-07-09T10:01:25;11.18;;;5.85;;
69573;SDS011;62840;52.366;5.980;2023-07-09T10:03:55;8.82;;;5.90;;
69573;SDS011;62840;52.366;5.980;2023-07-09T10:06:28;11.10;;;6.22;;
69573;SDS011;62840;52.366;5.980;2023-07-09T10:09:02;9.07;;;5.97;;
69573;SDS011;62840;52.366;5.980;2023-07-09T10:11:45;11.07;;;5.57;;
69573;SDS011;62840;52.366;5.980;2023-07-09T10:14:23;9.55;;;6.22;;
69573;SDS011;62840;52.366;5.980;2023-07-09T10:16:59;9.55;;;6.15;;
69573;SDS011;62840;52.366;5.980;2023-07-09T10:19:39;9.38;;;5.68;;
69573;SDS011;62840;52.366;5.980;2023-07-09T10:22:19;10.20;;;6.20;;
69573;SDS011;62840;52.366;5.980;2023-07-09T10:25:06;9.73;;;6.30;;
69573;SDS011;62840;52.366;5.980;2023-07-09T10:27:57;12.65;;;6.20;;
69573;SDS011;62840;52.366;5.980;2023-07-09T10:30:47;8.77;;;5.80;;
69573;SDS011;62840;52.366;5.980;2023-07-09T10:33:25;8.82;;;6.15;;
69573;SDS011;62840;52.366;5.980;2023-07-09T10:36:03;9.20;;;5.87;;
69573;SDS011;62840;52.366;5.980;2023-07-09T10:38:51;10.88;;;6.43;;
69573;SDS011;62840;52.366;5.980;2023-07-09T10:41:25;10.85;;;6.80;;
69573;SDS011;62840;52.366;5.980;2023-07-09T10:43:52;9.77;;;6.50;;
69573;SDS011;62840;52.366;5.980;2023-07-09T10:46:26;9.95;;;6.38;;
69573;SDS011;62840;52.366;5.980;2023-07-09T10:49:00;10.87;;;6.40;;
69573;SDS011;62840;52.366;5.980;2023-07-09T10:51:29;13.95;;;6.80;;
69573;SDS011;62840;52.366;5.980;2023-07-09T10:54:05;9.18;;;6.10;;
69573;SDS011;62840;52.366;5.980;2023-07-09T10:56:41;11.65;;;6.35;;
69573;SDS011;62840;52.366;5.980;2023-07-09T10:59:15;10.52;;;6.80;;
69573;SDS011;62840;52.366;5.980;2023-07-09T11:01:48;11.10;;;7.07;;
69573;SDS011;62840;52.366;5.980;2023-07-09T11:04:24;11.57;;;6.68;;
69573;SDS011;62840;52.366;5.980;2023-07-09T11:07:06;9.35;;;6.65;;
69573;SDS011;62840;52.366;5.980;2023-07-09T11:09:43;8.77;;;6.80;;
69573;SDS011;62840;52.366;5.980;2023-07-09T11:12:14;10.68;;;6.63;;
69573;SDS011;62840;52.366;5.980;2023-07-09T11:14:50;8.83;;;5.90;;
69573;SDS011;62840;52.366;5.980;2023-07-09T11:17:23;8.85;;;6.43;;
69573;SDS011;62840;52.366;5.980;2023-07-09T11:19:53;9.63;;;5.50;;
69573;SDS011;62840;52.366;5.980;2023-07-09T11:22:24;9.43;;;5.70;;
69573;SDS011;62840;52.366;5.980;2023-07-09T11:25:04;9.45;;;5.60;;
69573;SDS011;62840;52.366;5.980;2023-07-09T11:27:33;9.67;;;5.50;;
69573;SDS011;62840;52.366;5.980;2023-07-09T11:30:18;9.85;;;5.80;;
69573;SDS011;62840;52.366;5.980;2023-07-09T11:32:47;8.85;;;5.70;;
69573;SDS011;62840;52.366;5.980;2023-07-09T11:35:22;8.27;;;5.30;;
69573;SDS011;62840;52.366;5.980;2023-07-09T11:37:49;10.02;;;5.93;;
69573;SDS011;62840;52.366;5.980;2023-07-09T11:40:19;8.33;;;5.90;;
69573;SDS011;62840;52.366;5.980;2023-07-09T11:42:47;11.27;;;6.25;;
69573;SDS011;62840;52.366;5.980;2023-07-09T11:45:17;8.65;;;6.57;;
69573;SDS011;62840;52.366;5.980;2023-07-09T11:47:50;10.15;;;6.03;;
69573;SDS011;62840;52.366;5.980;2023-07-09T11:50:24;7.95;;;5.95;;
69573;SDS011;62840;52.366;5.980;2023-07-09T11:52:55;8.83;;;6.00;;
69573;SDS011;62840;52.366;5.980;2023-07-09T11:55:31;10.70;;;6.32;;
69573;SDS011;62840;52.366;5.980;2023-07-09T11:58:06;9.35;;;6.60;;
69573;SDS011;62840;52.366;5.980;2023-07-09T12:00:37;9.05;;;5.90;;
69573;SDS011;62840;52.366;5.980;2023-07-09T12:03:06;9.23;;;5.97;;
69573;SDS011;62840;52.366;5.980;2023-07-09T12:05:41;9.90;;;6.13;;
69573;SDS011;62840;52.366;5.980;2023-07-09T12:08:16;9.40;;;5.63;;
69573;SDS011;62840;52.366;5.980;2023-07-09T12:10:45;9.02;;;6.05;;
69573;SDS011;62840;52.366;5.980;2023-07-09T12:13:15;11.02;;;5.30;;
69573;SDS011;62840;52.366;5.980;2023-07-09T12:15:41;8.77;;;5.40;;
69573;SDS011;62840;52.366;5.980;2023-07-09T12:18:10;8.33;;;5.17;;
69573;SDS011;62840;52.366;5.980;2023-07-09T12:20:39;8.32;;;5.32;;
69573;SDS011;62840;52.366;5.980;2023-07-09T12:23:09;8.57;;;5.50;;
69573;SDS011;62840;52.366;5.980;2023-07-09T12:25:36;7.78;;;5.10;;
69573;SDS011;62840;52.366;5.980;2023-07-09T12:28:11;8.05;;;5.10;;
69573;SDS011;62840;52.366;5.980;2023-07-09T12:30:39;8.82;;;5.20;;
69573;SDS011;62840;52.366;5.980;2023-07-09T12:33:06;10.63;;;5.27;;
69573;SDS011;62840;52.366;5.980;2023-07-09T12:35:33;10.55;;;5.85;;
69573;SDS011;62840;52.366;5.980;2023-07-09T12:37:59;8.38;;;5.20;;
69573;SDS011;62840;52.366;5.980;2023-07-09T12:40:28;11.03;;;5.93;;
69573;SDS011;62840;52.366;5.980;2023-07-09T12:42:54;8.23;;;5.75;;
69573;SDS011;62840;52.366;5.980;2023-07-09T12:45:23;7.68;;;5.45;;
69573;SDS011;62840;52.366;5.980;2023-07-09T12:47:49;8.43;;;5.50;;
69573;SDS011;62840;52.366;5.980;2023-07-09T12:50:22;8.73;;;5.50;;
69573;SDS011;62840;52.366;5.980;2023-07-09T12:52:56;20.90;;;6.00;;
69573;SDS011;62840;52.366;5.980;2023-07-09T12:55:27;8.73;;;5.65;;
69573;SDS011;62840;52.366;5.980;2023-07-09T12:58:08;9.13;;;5.57;;
69573;SDS011;62840;52.366;5.980;2023-07-09T13:00:46;9.13;;;5.53;;
69573;SDS011;62840;52.366;5.980;2023-07-09T13:03:14;11.35;;;5.68;;
69573;SDS011;62840;52.366;5.980;2023-07-09T13:05:40;8.03;;;5.20;;
69573;SDS011;62840;52.366;5.980;2023-07-09T13:08:18;7.35;;;5.03;;
69573;SDS011;62840;52.366;5.980;2023-07-09T13:10:43;8.30;;;5.10;;
69573;SDS011;62840;52.366;5.980;2023-07-09T13:13:10;7.93;;;4.90;;
69573;SDS011;62840;52.366;5.980;2023-07-09T13:15:39;7.65;;;4.97;;
69573;SDS011;62840;52.366;5.980;2023-07-09T13:18:13;7.38;;;4.95;;
69573;SDS011;62840;52.366;5.980;2023-07-09T13:20:40;7.83;;;4.90;;
69573;SDS011;62840;52.366;5.980;2023-07-09T13:23:09;8.00;;;5.40;;
69573;SDS011;62840;52.366;5.980;2023-07-09T13:25:39;7.78;;;4.85;;
69573;SDS011;62840;52.366;5.980;2023-07-09T13:28:08;7.50;;;5.18;;
69573;SDS011;62840;52.366;5.980;2023-07-09T13:30:44;8.32;;;5.22;;
69573;SDS011;62840;52.366;5.980;2023-07-09T13:33:10;8.57;;;5.27;;
69573;SDS011;62840;52.366;5.980;2023-07-09T13:35:36;9.80;;;5.57;;
69573;SDS011;62840;52.366;5.980;2023-07-09T13:38:02;8.02;;;5.47;;
69573;SDS011;62840;52.366;5.980;2023-07-09T13:40:28;9.77;;;5.10;;
69573;SDS011;62840;52.366;5.980;2023-07-09T13:42:54;17.47;;;5.90;;
69573;SDS011;62840;52.366;5.980;2023-07-09T13:45:20;10.38;;;5.75;;
69573;SDS011;62840;52.366;5.980;2023-07-09T13:47:52;7.47;;;5.15;;
69573;SDS011;62840;52.366;5.980;2023-07-09T13:50:18;7.30;;;5.15;;
69573;SDS011;62840;52.366;5.980;2023-07-09T13:52:46;8.68;;;5.53;;
69573;SDS011;62840;52.366;5.980;2023-07-09T13:55:19;9.63;;;5.88;;
69573;SDS011;62840;52.366;5.980;2023-07-09T13:57:48;14.50;;;5.72;;
69573;SDS011;62840;52.366;5.980;2023-07-09T14:00:16;12.32;;;6.45;;
69573;SDS011;62840;52.366;5.980;2023-07-09T14:02:42;12.43;;;6.60;;
69573;SDS011;62840;52.366;5.980;2023-07-09T14:05:13;12.98;;;7.45;;
69573;SDS011;62840;52.366;5.980;2023-07-09T14:07:39;20.00;;;8.82;;
69573;SDS011;62840;52.366;5.980;2023-07-09T14:10:09;22.95;;;9.75;;
69573;SDS011;62840;52.366;5.980;2023-07-09T14:12:38;12.77;;;5.53;;
69573;SDS011;62840;52.366;5.980;2023-07-09T14:15:12;12.60;;;6.50;;
69573;SDS011;62840;52.366;5.980;2023-07-09T14:17:40;13.13;;;7.20;;
69573;SDS011;62840;52.366;5.980;2023-07-09T14:20:07;11.02;;;7.20;;
69573;SDS011;62840;52.366;5.980;2023-07-09T14:22:40;10.37;;;6.57;;
69573;SDS011;62840;52.366;5.980;2023-07-09T14:25:09;9.73;;;6.18;;
69573;SDS011;62840;52.366;5.980;2023-07-09T14:27:45;10.70;;;6.50;;
69573;SDS011;62840;52.366;5.980;2023-07-09T14:30:14;8.45;;;5.85;;
69573;SDS011;62840;52.366;5.980;2023-07-09T14:32:41;11.00;;;5.85;;
69573;SDS011;62840;52.366;5.980;2023-07-09T14:35:11;8.73;;;5.40;;
69573;SDS011;62840;52.366;5.980;2023-07-09T14:37:43;8.18;;;4.93;;
69573;SDS011;62840;52.366;5.980;2023-07-09T14:40:11;9.10;;;5.25;;
69573;SDS011;62840;52.366;5.980;2023-07-09T14:42:38;8.23;;;5.10;;
69573;SDS011;62840;52.366;5.980;2023-07-09T14:45:12;9.13;;;5.40;;
69573;SDS011;62840;52.366;5.980;2023-07-09T14:47:44;6.97;;;4.50;;
69573;SDS011;62840;52.366;5.980;2023-07-09T14:50:10;6.65;;;4.18;;